Time;durP1;ratioP1;P1;durP2;ratioP2;P2;SDS_P1;SDS_P2;PMS_P1;PMS_P2;Temp;Humidity;BMP_temperature;BMP_pressure;BME280_temperature;BME280_humidity;BME280_pressure;Samples;Min_cycle;Max_cycle;Signal;HPM_P1;HPM_P2
2020/12/02 00:00:31;;;;;;;7.40;3.53;;;8.90;93.70;;;;;;4992784;28;20022;-73
2020/12/02 00:03:19;;;;;;;8.90;2.92;;;8.90;93.80;;;;;;4992155;28;20157;-73
2020/12/02 00:05:51;;;;;;;6.65;2.80;;;8.90;93.70;;;;;;4992146;28;20039;-74
2020/12/02 00:08:29;;;;;;;13.00;3.00;;;8.80;93.70;;;;;;4991668;28;20044;-73
2020/12/02 00:10:57;;;;;;;10.32;2.33;;;8.90;93.70;;;;;;4991888;28;20105;-73
2020/12/02 00:13:32;;;;;;;9.15;2.70;;;8.80;93.70;;;;;;4992475;28;20034;-73
2020/12/02 00:15:59;;;;;;;12.70;3.95;;;8.80;93.80;;;;;;4992062;28;20486;-73
2020/12/02 00:18:25;;;;;;;7.78;2.55;;;8.80;93.80;;;;;;4991303;28;20530;-74
2020/12/02 00:20:51;;;;;;;10.82;2.70;;;8.80;93.80;;;;;;4991935;28;20110;-74
2020/12/02 00:23:17;;;;;;;7.95;2.70;;;8.80;93.80;;;;;;4992279;28;20026;-74
2020/12/02 00:25:43;;;;;;;9.05;2.35;;;8.80;93.80;;;;;;4992083;28;20058;-80
2020/12/02 00:28:11;;;;;;;11.93;3.30;;;8.80;93.80;;;;;;4992145;28;20056;-74
2020/12/02 00:30:37;;;;;;;12.57;2.85;;;8.80;93.80;;;;;;4991120;28;20022;-73
2020/12/02 00:33:12;;;;;;;9.30;2.30;;;8.80;93.80;;;;;;4991485;28;20692;-74
2020/12/02 00:35:38;;;;;;;11.95;2.95;;;8.80;93.80;;;;;;5007478;28;20066;-74
2020/12/02 00:38:07;;;;;;;9.40;2.17;;;8.80;93.80;;;;;;4991538;28;20030;-74
2020/12/02 00:40:33;;;;;;;7.95;2.40;;;8.70;93.80;;;;;;4992423;28;20101;-73
2020/12/02 00:42:59;;;;;;;8.48;2.53;;;8.80;93.80;;;;;;5006801;28;20172;-74
2020/12/02 00:45:24;;;;;;;7.75;2.78;;;8.80;93.80;;;;;;4992430;28;20097;-73
2020/12/02 00:47:51;;;;;;;7.55;2.47;;;8.80;93.80;;;;;;5006744;28;20035;-73
2020/12/02 00:50:18;;;;;;;11.77;2.40;;;8.80;93.80;;;;;;5008513;28;20018;-72
2020/12/02 00:52:59;;;;;;;9.63;3.20;;;8.90;93.80;;;;;;4995472;28;20053;-73
2020/12/02 00:55:24;;;;;;;15.82;4.20;;;8.80;93.70;;;;;;5011114;28;20014;-73
2020/12/02 00:57:52;;;;;;;9.70;2.80;;;8.70;93.80;;;;;;4995319;28;20033;-74
2020/12/02 01:00:18;;;;;;;9.65;2.38;;;8.70;93.80;;;;;;4995554;28;20525;-73
2020/12/02 01:02:49;;;;;;;12.70;3.00;;;8.80;93.80;;;;;;5010951;28;20415;-73
2020/12/02 01:05:17;;;;;;;10.70;2.70;;;8.70;93.80;;;;;;4996069;28;20026;-73
2020/12/02 01:07:44;;;;;;;8.88;2.60;;;8.80;93.80;;;;;;4995726;28;20104;-73
2020/12/02 01:10:12;;;;;;;9.68;2.28;;;8.80;93.70;;;;;;5010121;28;20526;-73
2020/12/02 01:12:43;;;;;;;11.15;2.70;;;8.80;93.70;;;;;;5010610;28;20027;-73
2020/12/02 01:15:10;;;;;;;11.60;2.80;;;8.80;93.70;;;;;;5010048;28;20030;-73
2020/12/02 01:17:36;;;;;;;10.23;2.90;;;8.90;93.70;;;;;;5010636;28;20038;-73
2020/12/02 01:20:06;;;;;;;9.82;2.60;;;8.80;93.70;;;;;;5009728;28;20076;-73
2020/12/02 01:22:38;;;;;;;6.78;2.33;;;8.80;93.70;;;;;;4995800;28;20053;-73
2020/12/02 01:25:15;;;;;;;9.68;2.42;;;8.80;93.70;;;;;;4994961;28;20471;-72
2020/12/02 01:27:57;;;;;;;9.45;2.33;;;8.80;93.70;;;;;;4995372;28;20034;-72
2020/12/02 01:30:24;;;;;;;8.68;2.60;;;8.80;93.70;;;;;;5010531;28;20018;-72
2020/12/02 01:32:51;;;;;;;7.00;2.35;;;8.80;93.80;;;;;;4994657;28;20026;-73
2020/12/02 01:35:22;;;;;;;11.68;2.92;;;8.80;93.70;;;;;;4995135;28;20092;-72
2020/12/02 01:37:54;;;;;;;8.27;2.38;;;8.80;93.70;;;;;;5009904;28;20023;-79
2020/12/02 01:40:34;;;;;;;9.57;2.35;;;8.80;93.80;;;;;;4994967;28;20192;-72
2020/12/02 01:43:09;;;;;;;12.53;2.27;;;8.80;93.80;;;;;;5009670;28;20128;-73
2020/12/02 01:45:48;;;;;;;10.32;2.70;;;8.80;93.70;;;;;;4995401;28;20030;-73
2020/12/02 01:48:49;;;;;;;12.35;2.38;;;8.80;93.70;;;;;;4995038;28;20385;-73
2020/12/02 01:51:47;;;;;;;10.40;2.30;;;8.80;93.90;;;;;;4986232;28;20046;-73
2020/12/02 01:54:28;;;;;;;11.38;3.00;;;8.80;93.70;;;;;;4994052;28;20104;-74
2020/12/02 01:57:01;;;;;;;8.10;2.42;;;8.80;93.70;;;;;;5009417;28;20035;-73
2020/12/02 01:59:42;;;;;;;9.75;2.67;;;8.80;93.70;;;;;;4994818;28;20030;-72
2020/12/02 02:02:11;;;;;;;9.95;2.92;;;8.80;93.70;;;;;;4993352;28;20378;-73
2020/12/02 02:04:58;;;;;;;7.47;2.63;;;8.70;93.70;;;;;;4994470;28;20022;-73
2020/12/02 02:07:26;;;;;;;12.32;3.92;;;8.70;93.80;;;;;;5009873;28;20038;-73
2020/12/02 02:10:00;;;;;;;11.77;2.72;;;8.70;93.80;;;;;;5009086;28;20023;-73
2020/12/02 02:13:03;;;;;;;14.00;3.72;;;8.60;93.90;;;;;;5009708;28;20132;-73
2020/12/02 02:15:44;;;;;;;13.15;3.03;;;8.60;93.90;;;;;;4994313;28;20030;-73
2020/12/02 02:18:31;;;;;;;12.03;2.77;;;8.60;93.90;;;;;;5008992;28;20237;-73
2020/12/02 02:21:08;;;;;;;13.52;3.13;;;8.60;94.00;;;;;;4991815;28;20031;-73
2020/12/02 02:23:34;;;;;;;9.68;2.50;;;8.60;93.90;;;;;;4994437;28;20470;-74
2020/12/02 02:26:15;;;;;;;14.18;3.45;;;8.60;93.90;;;;;;4993820;28;20435;-73
2020/12/02 02:28:47;;;;;;;11.87;2.87;;;8.60;93.80;;;;;;4994067;28;20081;-73
2020/12/02 02:31:18;;;;;;;6.75;2.42;;;8.60;93.90;;;;;;4993176;28;20023;-73
2020/12/02 02:33:45;;;;;;;15.97;2.83;;;8.60;93.90;;;;;;4994280;28;20038;-73
2020/12/02 02:36:13;;;;;;;15.32;2.40;;;8.60;93.90;;;;;;4993453;28;20041;-74
2020/12/02 02:38:39;;;;;;;12.48;2.80;;;8.60;93.90;;;;;;4992587;28;20036;-73
2020/12/02 02:41:06;;;;;;;9.98;2.97;;;8.60;93.90;;;;;;4993250;28;20038;-73
2020/12/02 02:43:32;;;;;;;11.23;2.95;;;8.60;93.90;;;;;;4994025;28;20034;-73
2020/12/02 02:45:57;;;;;;;13.65;3.67;;;8.60;93.90;;;;;;4993102;28;20041;-73
2020/12/02 02:48:23;;;;;;;11.15;3.78;;;8.60;94.20;;;;;;5009215;28;20022;-73
2020/12/02 02:50:49;;;;;;;17.58;3.67;;;8.60;93.90;;;;;;5008808;28;20026;-73
2020/12/02 02:53:18;;;;;;;16.40;3.95;;;8.70;93.90;;;;;;4992823;28;20482;-74
2020/12/02 02:55:44;;;;;;;12.05;3.55;;;8.70;93.80;;;;;;4992379;28;20022;-73
2020/12/02 02:58:10;;;;;;;9.98;3.13;;;8.70;93.80;;;;;;4993393;28;20118;-74
2020/12/02 03:00:36;;;;;;;10.73;3.17;;;8.60;93.80;;;;;;4992081;28;20120;-73
2020/12/02 03:03:02;;;;;;;10.85;3.35;;;8.60;93.90;;;;;;4991513;28;20026;-73
2020/12/02 03:05:28;;;;;;;9.30;3.92;;;8.60;93.90;;;;;;4992248;28;20029;-73
2020/12/02 03:08:00;;;;;;;12.75;3.58;;;8.70;94.20;;;;;;4991456;28;20057;-74
2020/12/02 03:10:30;;;;;;;9.50;2.90;;;8.70;93.80;;;;;;4993311;28;20534;-73
2020/12/02 03:13:00;;;;;;;10.48;3.65;;;8.70;93.90;;;;;;5007494;28;20027;-74
2020/12/02 03:15:26;;;;;;;12.93;3.28;;;8.70;93.80;;;;;;4991751;28;20438;-74
2020/12/02 03:17:53;;;;;;;10.25;3.15;;;8.70;93.90;;;;;;5008223;28;20023;-73
2020/12/02 03:20:32;;;;;;;10.43;2.88;;;8.70;93.90;;;;;;5008280;28;20482;-73
2020/12/02 03:22:58;;;;;;;13.98;2.75;;;8.70;93.80;;;;;;4991427;28;20121;-74
2020/12/02 03:25:28;;;;;;;13.77;2.72;;;8.70;93.80;;;;;;4993206;28;20101;-73
2020/12/02 03:27:54;;;;;;;17.92;3.60;;;8.70;93.80;;;;;;4992594;28;20530;-74
2020/12/02 03:30:20;;;;;;;11.38;3.00;;;8.70;93.80;;;;;;4992856;28;20041;-74
2020/12/02 03:32:46;;;;;;;12.07;3.40;;;8.70;93.80;;;;;;5007385;28;20026;-74
2020/12/02 03:35:12;;;;;;;11.32;2.50;;;8.70;93.80;;;;;;5006817;28;20105;-74
2020/12/02 03:37:38;;;;;;;11.60;3.10;;;8.70;93.80;;;;;;4991786;28;20179;-74
2020/12/02 03:40:05;;;;;;;21.75;4.55;;;8.70;93.80;;;;;;4990299;28;20466;-74
2020/12/02 03:42:30;;;;;;;13.93;3.42;;;8.70;93.80;;;;;;4990786;28;20505;-74
2020/12/02 03:44:56;;;;;;;13.63;3.10;;;8.70;93.70;;;;;;4991476;28;20066;-74
2020/12/02 03:47:22;;;;;;;18.92;3.95;;;8.70;93.80;;;;;;5007306;28;20068;-74
2020/12/02 03:49:47;;;;;;;10.13;2.72;;;8.70;93.80;;;;;;4992040;28;20084;-74
2020/12/02 03:52:13;;;;;;;12.27;3.13;;;8.60;93.80;;;;;;4991234;28;20254;-74
2020/12/02 03:54:39;;;;;;;10.00;2.67;;;8.60;93.90;;;;;;4991153;28;20050;-73
2020/12/02 03:57:04;;;;;;;14.02;2.95;;;8.60;93.90;;;;;;5007117;28;20030;-73
2020/12/02 03:59:30;;;;;;;11.63;3.42;;;8.60;93.90;;;;;;4991123;28;20083;-73
2020/12/02 04:01:56;;;;;;;12.73;3.22;;;8.60;93.90;;;;;;5005954;28;20589;-74
2020/12/02 04:04:23;;;;;;;7.97;3.47;;;8.60;93.90;;;;;;5012487;28;20049;-73
2020/12/02 04:06:50;;;;;;;8.75;2.35;;;8.60;93.90;;;;;;5012248;28;20493;-73
2020/12/02 04:09:16;;;;;;;18.63;3.33;;;8.60;93.90;;;;;;5011386;28;20026;-74
2020/12/02 04:11:42;;;;;;;15.02;3.97;;;8.70;93.90;;;;;;5010840;28;20476;-74
2020/12/02 04:14:08;;;;;;;11.63;3.85;;;8.70;93.80;;;;;;5010082;28;20402;-74
2020/12/02 04:16:34;;;;;;;10.55;3.22;;;8.60;93.80;;;;;;5010737;28;20449;-73
2020/12/02 04:19:03;;;;;;;14.25;2.78;;;8.60;93.80;;;;;;5010341;28;20033;-74
2020/12/02 04:21:31;;;;;;;15.90;3.97;;;8.70;93.80;;;;;;5010601;28;20035;-74
2020/12/02 04:24:01;;;;;;;9.00;2.40;;;8.60;93.70;;;;;;5010494;28;20121;-78
2020/12/02 04:26:29;;;;;;;14.68;3.70;;;8.70;93.70;;;;;;5013955;28;20122;-74
2020/12/02 04:28:54;;;;;;;7.57;2.75;;;8.60;93.80;;;;;;5014539;28;20032;-74
2020/12/02 04:31:21;;;;;;;9.38;2.55;;;8.70;93.80;;;;;;5010066;28;20139;-73
2020/12/02 04:33:46;;;;;;;10.88;3.35;;;8.60;93.80;;;;;;4996109;28;20050;-73
2020/12/02 04:36:13;;;;;;;14.60;3.97;;;8.60;93.80;;;;;;5010581;28;20061;-73
2020/12/02 04:38:39;;;;;;;10.07;2.72;;;8.60;93.80;;;;;;5011294;28;20053;-73
2020/12/02 04:41:12;;;;;;;14.18;3.33;;;8.60;93.80;;;;;;4995267;28;20466;-73
2020/12/02 04:43:54;;;;;;;13.02;4.15;;;8.60;93.90;;;;;;4996531;28;20034;-73
2020/12/02 04:46:33;;;;;;;8.98;2.40;;;8.60;93.90;;;;;;5010496;28;20026;-74
2020/12/02 04:49:16;;;;;;;10.40;2.90;;;8.50;93.90;;;;;;5000510;28;20117;-74
2020/12/02 04:51:42;;;;;;;9.13;2.70;;;8.50;93.90;;;;;;5000254;28;20113;-74
2020/12/02 04:54:09;;;;;;;13.02;2.63;;;8.50;93.90;;;;;;4995240;28;20100;-74
2020/12/02 04:56:41;;;;;;;12.70;3.17;;;8.60;93.90;;;;;;5012284;28;20495;-75
2020/12/02 04:59:06;;;;;;;8.75;3.05;;;8.60;93.90;;;;;;4998731;28;20029;-74
2020/12/02 05:01:35;;;;;;;6.20;2.50;;;8.60;93.90;;;;;;5005168;28;20022;-74
2020/12/02 05:04:04;;;;;;;8.88;2.63;;;8.60;93.90;;;;;;4996043;28;20034;-75
2020/12/02 05:06:42;;;;;;;8.02;3.00;;;8.60;93.90;;;;;;4994396;28;20077;-74
2020/12/02 05:09:20;;;;;;;8.18;2.60;;;8.60;93.80;;;;;;4995099;28;20023;-74
2020/12/02 05:12:01;;;;;;;9.18;2.95;;;8.60;93.80;;;;;;4995665;28;20066;-74
2020/12/02 05:14:44;;;;;;;13.55;2.70;;;8.60;93.80;;;;;;4995460;28;20034;-74
2020/12/02 05:17:25;;;;;;;13.68;2.45;;;8.60;93.80;;;;;;4993760;28;20042;-74
2020/12/02 05:20:10;;;;;;;9.25;2.40;;;8.60;93.80;;;;;;4994242;28;20085;-74
2020/12/02 05:22:38;;;;;;;8.07;2.38;;;8.60;93.80;;;;;;4995570;28;20030;-75
2020/12/02 05:25:14;;;;;;;8.77;3.00;;;8.60;93.80;;;;;;4994857;28;20150;-75
2020/12/02 05:27:44;;;;;;;11.88;2.47;;;8.60;93.80;;;;;;4994272;28;20095;-75
2020/12/02 05:30:20;;;;;;;12.50;2.70;;;8.60;93.80;;;;;;4993240;28;20023;-74
2020/12/02 05:33:10;;;;;;;13.25;2.38;;;8.60;93.80;;;;;;4993876;28;20336;-74
2020/12/02 05:36:00;;;;;;;15.45;3.53;;;8.60;93.80;;;;;;4992832;28;20475;-74
2020/12/02 05:38:32;;;;;;;7.15;2.00;;;8.60;93.80;;;;;;4982032;28;20050;-74
2020/12/02 05:40:59;;;;;;;14.40;2.60;;;8.60;93.80;;;;;;4991383;28;20050;-73
2020/12/02 05:43:33;;;;;;;9.27;3.05;;;8.60;93.80;;;;;;4992722;28;20077;-73
2020/12/02 05:45:59;;;;;;;13.63;3.20;;;8.60;93.80;;;;;;4991465;28;20034;-73
2020/12/02 05:48:34;;;;;;;9.52;2.58;;;8.60;93.90;;;;;;4991719;28;20072;-73
2020/12/02 05:51:02;;;;;;;9.55;3.20;;;8.60;93.90;;;;;;4991002;28;20030;-75
2020/12/02 05:53:41;;;;;;;14.18;2.75;;;8.60;93.90;;;;;;4990935;28;20145;-73
2020/12/02 05:56:09;;;;;;;12.07;3.28;;;8.60;93.90;;;;;;4992531;28;20034;-74
2020/12/02 05:58:39;;;;;;;10.23;3.22;;;8.60;93.90;;;;;;4992373;28;20444;-73
2020/12/02 06:01:09;;;;;;;18.35;3.42;;;8.50;93.90;;;;;;4990169;28;20045;-74
2020/12/02 06:03:35;;;;;;;11.13;2.90;;;8.50;94.00;;;;;;4992254;28;20092;-73
2020/12/02 06:06:06;;;;;;;16.40;2.80;;;8.50;94.00;;;;;;4992875;28;20034;-73
2020/12/02 06:08:45;;;;;;;13.68;2.78;;;8.60;94.00;;;;;;4992480;28;20033;-75
2020/12/02 06:11:17;;;;;;;11.05;3.30;;;8.60;94.00;;;;;;4997728;28;20068;-73
2020/12/02 06:13:55;;;;;;;15.82;2.55;;;8.60;93.90;;;;;;4992784;28;20026;-75
2020/12/02 06:16:38;;;;;;;11.07;2.78;;;8.60;93.90;;;;;;4991819;28;20034;-75
2020/12/02 06:19:21;;;;;;;7.78;2.28;;;8.60;93.80;;;;;;4992619;28;20110;-75
2020/12/02 06:22:07;;;;;;;7.85;2.72;;;8.60;93.80;;;;;;4993122;28;20030;-74
2020/12/02 06:24:38;;;;;;;11.27;3.58;;;8.60;93.80;;;;;;4993320;28;20068;-74
2020/12/02 06:27:29;;;;;;;11.35;2.58;;;8.60;93.80;;;;;;4993758;28;20073;-76
2020/12/02 06:30:13;;;;;;;11.00;2.75;;;8.60;93.80;;;;;;4993186;28;20038;-74
2020/12/02 06:32:38;;;;;;;17.15;2.85;;;8.60;93.80;;;;;;4992777;28;20109;-74
2020/12/02 06:35:14;;;;;;;11.48;2.85;;;8.50;93.80;;;;;;4993484;28;20118;-75
2020/12/02 06:37:40;;;;;;;7.75;2.50;;;8.60;93.80;;;;;;4994092;28;20140;-74
2020/12/02 06:40:10;;;;;;;12.30;3.35;;;8.60;93.80;;;;;;4993354;28;20026;-75
2020/12/02 06:42:39;;;;;;;9.02;2.00;;;8.60;93.80;;;;;;4993738;28;20022;-75
2020/12/02 06:45:24;;;;;;;7.47;2.85;;;8.60;93.80;;;;;;4991959;28;20085;-75
2020/12/02 06:47:49;;;;;;;9.38;2.33;;;8.60;93.80;;;;;;4993735;28;20047;-75
2020/12/02 06:50:23;;;;;;;9.82;2.88;;;8.50;93.80;;;;;;4993114;28;20366;-74
2020/12/02 06:52:49;;;;;;;7.97;2.60;;;8.50;93.80;;;;;;5008433;28;20482;-74
2020/12/02 06:55:24;;;;;;;10.32;2.50;;;8.50;93.90;;;;;;4991793;28;20018;-74
2020/12/02 06:58:00;;;;;;;7.47;2.40;;;8.50;93.90;;;;;;4992385;28;20022;-74
2020/12/02 07:00:37;;;;;;;15.80;3.15;;;8.50;94.00;;;;;;4993270;28;20034;-74
2020/12/02 07:03:36;;;;;;;8.23;2.47;;;8.40;94.00;;;;;;4993300;28;20378;-74
2020/12/02 07:06:26;;;;;;;15.85;2.38;;;8.50;94.00;;;;;;4990712;28;20397;-74
2020/12/02 07:09:10;;;;;;;9.45;2.17;;;8.40;94.00;;;;;;4992542;28;20014;-74
2020/12/02 07:11:38;;;;;;;8.93;2.58;;;8.50;94.00;;;;;;4993488;28;20022;-74
2020/12/02 07:14:19;;;;;;;11.23;2.92;;;8.40;94.00;;;;;;4991928;28;20129;-74
2020/12/02 07:16:45;;;;;;;12.93;2.60;;;8.40;94.00;;;;;;4992104;28;20026;-74
2020/12/02 07:19:13;;;;;;;10.00;2.58;;;8.40;94.00;;;;;;4991341;28;20126;-74
2020/12/02 07:21:42;;;;;;;9.25;2.75;;;8.40;94.10;;;;;;4993565;28;20434;-74
2020/12/02 07:24:18;;;;;;;10.43;2.58;;;8.40;94.00;;;;;;4991250;28;20493;-74
2020/12/02 07:26:44;;;;;;;10.68;3.05;;;8.50;94.00;;;;;;4993155;28;20049;-74
2020/12/02 07:29:17;;;;;;;12.05;2.75;;;8.50;94.00;;;;;;4991193;28;20435;-74
2020/12/02 07:31:43;;;;;;;8.38;2.67;;;8.50;94.00;;;;;;4993032;28;20478;-74
2020/12/02 07:34:13;;;;;;;10.88;2.53;;;8.50;93.90;;;;;;4990945;28;20474;-75
2020/12/02 07:36:40;;;;;;;10.97;2.57;;;8.50;93.90;;;;;;4993118;28;20034;-74
2020/12/02 07:39:17;;;;;;;8.13;2.33;;;8.50;93.90;;;;;;4992966;28;20053;-74
2020/12/02 07:41:53;;;;;;;6.35;2.30;;;8.50;93.90;;;;;;4991609;28;20021;-74
2020/12/02 07:44:19;;;;;;;7.28;2.35;;;8.50;93.90;;;;;;4990820;28;20378;-74
2020/12/02 07:46:47;;;;;;;14.38;2.70;;;8.50;93.80;;;;;;4992772;28;20018;-74
2020/12/02 07:49:13;;;;;;;13.82;3.30;;;8.50;93.80;;;;;;4992138;28;20030;-74
2020/12/02 07:51:46;;;;;;;10.10;2.95;;;8.50;93.80;;;;;;4992542;28;20027;-74
2020/12/02 07:54:18;;;;;;;7.68;2.10;;;8.60;93.80;;;;;;4990330;28;20054;-77
2020/12/02 07:56:47;;;;;;;6.40;2.25;;;8.60;93.80;;;;;;4992417;28;20033;-75
2020/12/02 07:59:26;;;;;;;10.90;2.80;;;8.60;93.80;;;;;;4990645;28;20065;-75
2020/12/02 08:02:00;;;;;;;10.30;2.80;;;8.60;93.80;;;;;;4992325;28;20105;-74
2020/12/02 08:04:49;;;;;;;8.55;3.28;;;8.50;93.80;;;;;;4991627;28;20521;-75
2020/12/02 08:07:15;;;;;;;7.40;2.03;;;8.50;93.90;;;;;;4991839;28;20026;-75
2020/12/02 08:09:44;;;;;;;10.27;2.63;;;8.40;93.90;;;;;;4992304;28;20431;-75
2020/12/02 08:12:19;;;;;;;7.13;2.97;;;8.40;94.00;;;;;;4991719;28;20022;-76
2020/12/02 08:14:48;;;;;;;7.45;2.60;;;8.40;94.00;;;;;;4991209;28;20501;-75
2020/12/02 08:17:16;;;;;;;6.88;2.13;;;8.40;94.00;;;;;;4991866;28;20057;-74
2020/12/02 08:19:46;;;;;;;8.77;2.00;;;8.40;94.00;;;;;;4992562;28;20466;-74
2020/12/02 08:22:37;;;;;;;6.63;2.20;;;8.50;94.00;;;;;;4992154;28;20027;-74
2020/12/02 08:25:24;;;;;;;10.50;2.58;;;8.50;94.00;;;;;;4991078;28;20022;-74
2020/12/02 08:28:06;;;;;;;9.00;2.40;;;8.50;93.90;;;;;;4991117;28;20485;-74
2020/12/02 08:30:31;;;;;;;9.15;2.15;;;8.50;93.90;;;;;;4991511;28;20014;-74
2020/12/02 08:33:01;;;;;;;5.65;1.98;;;8.60;93.80;;;;;;4992446;28;20088;-75
2020/12/02 08:35:50;;;;;;;7.97;2.10;;;8.60;93.80;;;;;;4990308;28;20368;-75
2020/12/02 08:38:26;;;;;;;6.90;2.17;;;8.60;93.70;;;;;;4991687;28;20034;-74
2020/12/02 08:40:53;;;;;;;7.38;2.45;;;8.60;93.80;;;;;;4992187;28;20030;-74
2020/12/02 08:43:25;;;;;;;8.15;2.33;;;8.60;93.80;;;;;;4990275;28;20049;-75
2020/12/02 08:45:53;;;;;;;9.35;2.80;;;8.60;93.70;;;;;;4991921;28;20434;-74
2020/12/02 08:48:19;;;;;;;9.63;2.53;;;8.60;93.80;;;;;;4991323;28;20030;-74
2020/12/02 08:50:45;;;;;;;7.57;2.20;;;8.60;93.80;;;;;;4990837;28;20555;-74
2020/12/02 08:53:11;;;;;;;9.90;2.28;;;8.60;93.80;;;;;;4990269;28;20133;-74
2020/12/02 08:55:36;;;;;;;10.05;2.13;;;8.60;93.80;;;;;;4990808;28;20029;-74
2020/12/02 08:58:02;;;;;;;6.72;2.08;;;8.70;93.80;;;;;;4992107;28;20433;-74
2020/12/02 09:00:28;;;;;;;14.57;2.80;;;8.70;93.80;;;;;;4991518;28;20455;-74
2020/12/02 09:02:53;;;;;;;6.18;2.63;;;8.60;93.70;;;;;;4992188;28;20085;-73
2020/12/02 09:05:19;;;;;;;9.40;3.60;;;8.70;93.80;;;;;;4989788;28;20037;-74
2020/12/02 09:07:45;;;;;;;9.02;2.60;;;8.60;93.70;;;;;;4990673;28;20022;-75
2020/12/02 09:10:10;;;;;;;12.98;2.67;;;8.70;93.70;;;;;;4992339;28;20104;-76
2020/12/02 09:12:36;;;;;;;8.93;2.72;;;8.70;93.70;;;;;;4992827;28;20058;-75
2020/12/02 09:15:02;;;;;;;7.60;2.55;;;8.70;93.70;;;;;;4995223;28;20470;-75
2020/12/02 09:17:28;;;;;;;7.57;2.05;;;8.70;93.70;;;;;;4993578;28;20027;-75
2020/12/02 09:19:53;;;;;;;9.35;2.60;;;8.70;93.70;;;;;;4994269;28;20399;-74
2020/12/02 09:22:20;;;;;;;8.18;2.17;;;8.70;93.60;;;;;;4994964;28;20037;-75
2020/12/02 09:24:47;;;;;;;8.27;1.88;;;8.70;93.60;;;;;;4995288;28;20018;-74
2020/12/02 09:27:13;;;;;;;9.90;2.85;;;8.70;93.60;;;;;;4993924;28;20410;-75
2020/12/02 09:29:39;;;;;;;7.55;2.78;;;8.80;93.60;;;;;;4994011;28;20089;-76
2020/12/02 09:32:05;;;;;;;9.80;2.55;;;8.80;93.60;;;;;;4995399;28;20023;-75
2020/12/02 09:34:31;;;;;;;9.98;2.70;;;8.80;93.60;;;;;;4993362;28;20038;-74
2020/12/02 09:36:57;;;;;;;8.55;2.88;;;8.80;93.60;;;;;;4993876;28;20030;-74
2020/12/02 09:39:23;;;;;;;10.27;2.38;;;8.80;93.50;;;;;;4993192;28;20044;-75
2020/12/02 09:42:04;;;;;;;9.10;2.50;;;8.80;93.50;;;;;;4994854;28;20018;-74
2020/12/02 09:44:49;;;;;;;14.70;3.15;;;8.80;93.50;;;;;;4994376;28;20033;-74
2020/12/02 09:47:17;;;;;;;15.38;3.50;;;8.80;93.50;;;;;;4994607;28;20085;-78
2020/12/02 09:49:47;;;;;;;8.77;2.85;;;8.80;93.50;;;;;;4993409;28;20103;-74
2020/12/02 09:52:13;;;;;;;8.13;2.80;;;8.80;93.50;;;;;;4994893;28;20045;-74
2020/12/02 09:54:43;;;;;;;10.43;3.15;;;8.70;93.50;;;;;;4992287;28;20482;-74
2020/12/02 09:57:24;;;;;;;17.40;3.20;;;8.80;93.60;;;;;;4994631;28;20057;-74
2020/12/02 09:59:51;;;;;;;10.60;3.40;;;8.80;93.60;;;;;;4993134;28;20022;-74
2020/12/02 10:02:47;;;;;;;14.35;3.53;;;8.70;93.60;;;;;;4992663;28;20065;-74
2020/12/02 10:05:38;;;;;;;12.85;3.00;;;8.80;93.50;;;;;;4994600;28;20036;-74
2020/12/02 10:08:25;;;;;;;11.20;3.25;;;8.80;93.50;;;;;;4993191;28;20027;-75
2020/12/02 10:10:59;;;;;;;10.63;3.08;;;8.80;93.50;;;;;;4993405;28;20036;-74
2020/12/02 10:13:31;;;;;;;11.80;3.03;;;8.80;93.60;;;;;;4993491;28;20109;-74
2020/12/02 10:16:06;;;;;;;8.35;2.95;;;8.80;93.60;;;;;;4994145;28;20489;-73
2020/12/02 10:19:13;;;;;;;10.60;2.95;;;8.80;93.60;;;;;;4992375;28;20030;-74
2020/12/02 10:22:17;;;;;;;12.18;3.40;;;8.80;93.50;;;;;;4992122;28;20170;-75
2020/12/02 10:24:43;;;;;;;10.63;2.75;;;8.80;93.50;;;;;;4972245;28;20043;-74
2020/12/02 10:27:20;;;;;;;11.13;3.17;;;8.80;93.60;;;;;;4972384;28;20049;-74
2020/12/02 10:30:13;;;;;;;16.08;3.45;;;8.90;93.60;;;;;;4972302;28;20067;-74
2020/12/02 10:32:59;;;;;;;14.00;3.95;;;8.90;93.50;;;;;;4965613;28;20064;-74
2020/12/02 10:35:27;;;;;;;11.00;3.78;;;8.90;93.50;;;;;;4971422;28;20042;-74
2020/12/02 10:38:00;;;;;;;13.65;3.72;;;8.80;93.50;;;;;;4971983;28;20030;-75
2020/12/02 10:40:34;;;;;;;10.27;3.05;;;8.80;93.50;;;;;;4971674;28;20034;-75
2020/12/02 10:43:15;;;;;;;18.15;3.95;;;8.80;93.50;;;;;;4972374;28;20042;-74
2020/12/02 10:45:40;;;;;;;11.43;4.32;;;8.90;93.50;;;;;;4971531;28;20039;-73
2020/12/02 10:48:18;;;;;;;13.20;4.22;;;8.80;93.50;;;;;;4972114;28;20081;-74
2020/12/02 10:50:44;;;;;;;14.20;3.28;;;8.80;93.60;;;;;;4972068;28;20058;-74
2020/12/02 10:53:14;;;;;;;15.68;3.33;;;8.80;93.50;;;;;;4971641;28;20495;-74
2020/12/02 10:55:40;;;;;;;21.60;4.68;;;8.80;93.60;;;;;;4975220;28;20038;-74
2020/12/02 10:58:22;;;;;;;14.18;4.70;;;8.80;93.60;;;;;;4992334;28;20068;-74
2020/12/02 11:00:52;;;;;;;;;;;8.80;93.50;;;;;;4992644;28;20014;-74
2020/12/02 11:03:31;;;;;;;14.82;3.97;;;8.70;93.50;;;;;;4993597;28;19912;-74
2020/12/02 11:06:18;;;;;;;11.25;3.58;;;8.80;93.60;;;;;;4993486;28;20474;-75
2020/12/02 11:09:07;;;;;;;15.43;4.28;;;8.80;93.50;;;;;;4991226;28;20030;-74
2020/12/02 11:11:50;;;;;;;15.20;3.83;;;8.80;93.50;;;;;;4992760;28;20053;-75
2020/12/02 11:14:43;;;;;;;14.95;3.47;;;8.80;93.50;;;;;;4992019;28;20085;-74
2020/12/02 11:17:34;;;;;;;20.95;3.88;;;8.80;93.50;;;;;;4993012;28;20038;-74
2020/12/02 11:20:14;;;;;;;19.02;4.90;;;8.80;93.50;;;;;;4993463;28;20022;-75
2020/12/02 11:22:58;;;;;;;14.13;4.25;;;8.80;93.50;;;;;;4992298;28;20390;-75
2020/12/02 11:25:30;;;;;;;18.08;4.32;;;8.80;93.50;;;;;;4991181;28;20481;-75
2020/12/02 11:27:56;;;;;;;19.65;4.63;;;8.80;93.50;;;;;;4991795;28;20172;-75
2020/12/02 11:30:31;;;;;;;18.30;4.07;;;8.80;93.50;;;;;;4992412;28;20070;-75
2020/12/02 11:33:27;;;;;;;17.20;3.72;;;8.80;93.50;;;;;;4991595;28;20038;-73
2020/12/02 11:36:34;;;;;;;14.60;3.47;;;8.80;93.50;;;;;;4990980;28;20026;-75
2020/12/02 11:39:33;;;;;;;14.07;4.47;;;8.80;93.50;;;;;;4992832;28;20061;-75
2020/12/02 11:41:59;;;;;;;15.80;4.20;;;8.80;93.40;;;;;;4992636;28;20026;-75
2020/12/02 11:44:59;;;;;;;18.98;4.55;;;8.80;93.50;;;;;;4990836;28;20033;-75
2020/12/02 11:47:53;;;;;;;19.40;4.45;;;8.80;93.50;;;;;;4991732;28;20027;-75
2020/12/02 11:50:33;;;;;;;15.77;3.65;;;8.80;93.50;;;;;;4991538;28;20033;-75
2020/12/02 11:53:21;;;;;;;16.92;4.88;;;8.80;93.50;;;;;;4991067;28;20133;-73
2020/12/02 11:55:47;;;;;;;15.75;3.53;;;8.80;93.50;;;;;;4992432;28;20046;-74
2020/12/02 11:58:15;;;;;;;15.77;3.33;;;8.70;93.50;;;;;;4990900;28;20037;-74
2020/12/02 12:00:41;;;;;;;12.38;3.35;;;8.80;93.60;;;;;;4992060;28;20033;-74
2020/12/02 12:03:27;;;;;;;15.75;4.15;;;8.80;93.50;;;;;;4992736;28;20452;-74
2020/12/02 12:06:14;;;;;;;15.00;4.35;;;8.80;93.50;;;;;;4992633;28;20088;-74
2020/12/02 12:08:51;;;;;;;13.23;3.88;;;8.80;93.50;;;;;;4992011;28;20029;-74
2020/12/02 12:11:38;;;;;;;12.00;3.75;;;8.80;93.60;;;;;;4992362;28;20541;-74
2020/12/02 12:14:23;;;;;;;13.77;3.40;;;8.80;93.50;;;;;;4992329;28;20034;-74
2020/12/02 12:16:53;;;;;;;21.17;3.85;;;8.80;93.50;;;;;;4991307;28;20470;-74
2020/12/02 12:19:30;;;;;;;15.68;3.92;;;8.80;93.50;;;;;;4991038;28;20034;-74
2020/12/02 12:22:09;;;;;;;14.52;3.60;;;8.80;93.50;;;;;;4991234;28;20522;-74
2020/12/02 12:24:34;;;;;;;16.05;4.10;;;8.80;93.50;;;;;;4990439;28;20031;-75
2020/12/02 12:27:00;;;;;;;15.68;4.15;;;8.80;93.50;;;;;;4991088;28;20075;-75
2020/12/02 12:29:25;;;;;;;18.50;5.60;;;8.80;93.50;;;;;;4991743;28;20074;-76
2020/12/02 12:32:03;;;;;;;15.27;4.30;;;8.80;93.50;;;;;;4990971;28;20049;-75
2020/12/02 12:34:43;;;;;;;16.45;4.20;;;8.90;93.50;;;;;;4991346;28;20394;-75
2020/12/02 12:37:23;;;;;;;16.30;4.03;;;8.80;93.40;;;;;;4991151;28;20370;-74
2020/12/02 12:39:54;;;;;;;14.60;3.90;;;8.80;93.50;;;;;;4991760;28;20536;-75
2020/12/02 12:42:22;;;;;;;18.27;4.28;;;8.90;93.50;;;;;;4992263;28;20026;-75
2020/12/02 12:44:48;;;;;;;16.95;4.57;;;8.80;93.40;;;;;;4991653;28;20141;-75
2020/12/02 12:47:24;;;;;;;16.55;3.50;;;8.80;93.40;;;;;;4994809;28;20062;-75
2020/12/02 12:49:52;;;;;;;13.40;3.97;;;8.80;93.40;;;;;;4994589;28;20366;-74
2020/12/02 12:52:21;;;;;;;17.33;4.40;;;8.80;93.40;;;;;;4995873;28;20466;-74
2020/12/02 12:54:48;;;;;;;12.20;4.07;;;8.80;93.50;;;;;;4993537;28;20046;-74
2020/12/02 12:57:20;;;;;;;20.40;5.22;;;8.80;93.40;;;;;;4995803;28;20023;-74
2020/12/02 12:59:46;;;;;;;23.30;4.72;;;8.90;93.50;;;;;;4995337;28;20054;-74
2020/12/02 13:02:22;;;;;;;18.77;4.50;;;8.80;93.50;;;;;;4995496;28;20034;-74
2020/12/02 13:04:48;;;;;;;17.92;4.07;;;8.90;93.50;;;;;;4993954;28;20053;-75
2020/12/02 13:07:35;;;;;;;16.95;3.88;;;8.80;93.40;;;;;;4995798;28;20437;-75
2020/12/02 13:10:09;;;;;;;18.33;3.58;;;8.90;93.70;;;;;;4995750;28;20019;-75
2020/12/02 13:13:01;;;;;;;11.90;3.90;;;8.90;93.40;;;;;;4993577;28;20033;-75
2020/12/02 13:16:17;;;;;;;16.70;4.70;;;8.90;93.40;;;;;;4995338;28;20030;-75
2020/12/02 13:18:51;;;;;;;14.07;3.65;;;8.90;93.40;;;;;;4982856;28;20160;-73
2020/12/02 13:21:31;;;;;;;24.33;5.07;;;8.80;93.40;;;;;;4994093;28;20486;-74